sensor_id;sensor_type;location;lat;lon;timestamp;P1;durP1;ratioP1;P2;durP2;ratioP2
51732;SDS011;39139;53.144;6.244;2023-04-24T00:00:00;6.70;;;6.10;;
51732;SDS011;39139;53.144;6.244;2023-04-24T00:02:28;8.32;;;5.63;;
51732;SDS011;39139;53.144;6.244;2023-04-24T00:04:54;7.05;;;6.45;;
51732;SDS011;39139;53.144;6.244;2023-04-24T00:07:19;5.78;;;5.35;;
51732;SDS011;39139;53.144;6.244;2023-04-24T00:09:45;6.13;;;5.63;;
51732;SDS011;39139;53.144;6.244;2023-04-24T00:12:11;7.65;;;6.97;;
51732;SDS011;39139;53.144;6.244;2023-04-24T00:14:40;6.75;;;6.25;;
51732;SDS011;39139;53.144;6.244;2023-04-24T00:17:05;6.07;;;5.55;;
51732;SDS011;39139;53.144;6.244;2023-04-24T00:19:31;6.78;;;6.28;;
51732;SDS011;39139;53.144;6.244;2023-04-24T00:21:56;5.85;;;5.35;;
51732;SDS011;39139;53.144;6.244;2023-04-24T00:24:22;8.82;;;6.40;;
51732;SDS011;39139;53.144;6.244;2023-04-24T00:26:48;5.57;;;4.88;;
51732;SDS011;39139;53.144;6.244;2023-04-24T00:29:13;5.32;;;4.93;;
51732;SDS011;39139;53.144;6.244;2023-04-24T00:31:39;5.82;;;5.40;;
51732;SDS011;39139;53.144;6.244;2023-04-24T00:34:05;5.03;;;4.53;;
51732;SDS011;39139;53.144;6.244;2023-04-24T00:36:31;4.65;;;4.20;;
51732;SDS011;39139;53.144;6.244;2023-04-24T00:38:57;4.15;;;3.85;;
51732;SDS011;39139;53.144;6.244;2023-04-24T00:41:24;4.18;;;3.88;;
51732;SDS011;39139;53.144;6.244;2023-04-24T00:43:51;4.32;;;3.92;;
51732;SDS011;39139;53.144;6.244;2023-04-24T00:46:17;3.78;;;3.47;;
51732;SDS011;39139;53.144;6.244;2023-04-24T00:48:44;3.40;;;3.20;;
51732;SDS011;39139;53.144;6.244;2023-04-24T00:51:10;2.63;;;2.42;;
51732;SDS011;39139;53.144;6.244;2023-04-24T00:53:36;2.20;;;2.10;;
51732;SDS011;39139;53.144;6.244;2023-04-24T00:56:02;2.65;;;1.92;;
51732;SDS011;39139;53.144;6.244;2023-04-24T00:58:28;3.60;;;2.25;;
51732;SDS011;39139;53.144;6.244;2023-04-24T01:00:55;2.08;;;1.98;;
51732;SDS011;39139;53.144;6.244;2023-04-24T01:03:24;1.23;;;1.23;;
51732;SDS011;39139;53.144;6.244;2023-04-24T01:05:53;2.92;;;1.88;;
51732;SDS011;39139;53.144;6.244;2023-04-24T01:08:20;1.80;;;1.70;;
51732;SDS011;39139;53.144;6.244;2023-04-24T01:10:51;2.58;;;1.33;;
51732;SDS011;39139;53.144;6.244;2023-04-24T01:13:20;3.20;;;1.48;;
51732;SDS011;39139;53.144;6.244;2023-04-24T01:15:49;1.33;;;1.23;;
51732;SDS011;39139;53.144;6.244;2023-04-24T01:18:15;2.65;;;1.50;;
51732;SDS011;39139;53.144;6.244;2023-04-24T01:20:41;1.42;;;1.33;;
51732;SDS011;39139;53.144;6.244;2023-04-24T01:23:10;1.48;;;1.38;;
51732;SDS011;39139;53.144;6.244;2023-04-24T01:25:36;2.53;;;1.40;;
51732;SDS011;39139;53.144;6.244;2023-04-24T01:28:02;3.42;;;1.60;;
51732;SDS011;39139;53.144;6.244;2023-04-24T01:30:28;2.85;;;1.70;;
51732;SDS011;39139;53.144;6.244;2023-04-24T01:32:56;1.42;;;1.42;;
51732;SDS011;39139;53.144;6.244;2023-04-24T01:35:24;1.67;;;1.58;;
51732;SDS011;39139;53.144;6.244;2023-04-24T01:37:50;1.55;;;1.50;;
51732;SDS011;39139;53.144;6.244;2023-04-24T01:40:15;1.70;;;1.60;;
51732;SDS011;39139;53.144;6.244;2023-04-24T01:42:41;1.40;;;1.27;;
51732;SDS011;39139;53.144;6.244;2023-04-24T01:45:07;1.65;;;1.52;;
51732;SDS011;39139;53.144;6.244;2023-04-24T01:47:36;1.42;;;1.38;;
51732;SDS011;39139;53.144;6.244;2023-04-24T01:50:03;5.90;;;1.85;;
51732;SDS011;39139;53.144;6.244;2023-04-24T01:52:29;2.40;;;1.88;;
51732;SDS011;39139;53.144;6.244;2023-04-24T01:54:59;1.90;;;1.75;;
51732;SDS011;39139;53.144;6.244;2023-04-24T01:57:25;2.05;;;1.85;;
51732;SDS011;39139;53.144;6.244;2023-04-24T01:59:51;6.22;;;2.05;;
51732;SDS011;39139;53.144;6.244;2023-04-24T02:02:17;2.53;;;1.98;;
51732;SDS011;39139;53.144;6.244;2023-04-24T02:04:43;2.88;;;2.65;;
51732;SDS011;39139;53.144;6.244;2023-04-24T02:07:08;2.60;;;2.40;;
51732;SDS011;39139;53.144;6.244;2023-04-24T02:09:34;4.22;;;3.05;;
51732;SDS011;39139;53.144;6.244;2023-04-24T02:12:00;4.22;;;2.90;;
51732;SDS011;39139;53.144;6.244;2023-04-24T02:14:25;3.13;;;2.90;;
51732;SDS011;39139;53.144;6.244;2023-04-24T02:16:51;3.13;;;2.92;;
51732;SDS011;39139;53.144;6.244;2023-04-24T02:19:18;2.95;;;2.85;;
51732;SDS011;39139;53.144;6.244;2023-04-24T02:21:44;3.60;;;3.40;;
51732;SDS011;39139;53.144;6.244;2023-04-24T02:24:09;4.53;;;4.22;;
51732;SDS011;39139;53.144;6.244;2023-04-24T02:26:35;3.97;;;3.67;;
51732;SDS011;39139;53.144;6.244;2023-04-24T02:29:01;4.63;;;4.32;;
51732;SDS011;39139;53.144;6.244;2023-04-24T02:31:27;4.10;;;3.90;;
51732;SDS011;39139;53.144;6.244;2023-04-24T02:33:52;5.28;;;4.88;;
51732;SDS011;39139;53.144;6.244;2023-04-24T02:36:18;5.22;;;4.93;;
51732;SDS011;39139;53.144;6.244;2023-04-24T02:38:44;5.38;;;5.07;;
51732;SDS011;39139;53.144;6.244;2023-04-24T02:41:10;5.60;;;5.20;;
51732;SDS011;39139;53.144;6.244;2023-04-24T02:43:35;6.00;;;5.53;;
51732;SDS011;39139;53.144;6.244;2023-04-24T02:46:01;6.38;;;5.97;;
51732;SDS011;39139;53.144;6.244;2023-04-24T02:48:27;6.53;;;6.00;;
51732;SDS011;39139;53.144;6.244;2023-04-24T02:50:53;6.97;;;6.47;;
51732;SDS011;39139;53.144;6.244;2023-04-24T02:53:19;7.05;;;6.45;;
51732;SDS011;39139;53.144;6.244;2023-04-24T02:55:45;7.80;;;7.20;;
51732;SDS011;39139;53.144;6.244;2023-04-24T02:58:11;7.93;;;7.32;;
51732;SDS011;39139;53.144;6.244;2023-04-24T03:00:38;8.63;;;7.93;;
51732;SDS011;39139;53.144;6.244;2023-04-24T03:03:04;7.80;;;7.10;;
51732;SDS011;39139;53.144;6.244;2023-04-24T03:05:30;8.63;;;7.93;;
51732;SDS011;39139;53.144;6.244;2023-04-24T03:07:56;8.30;;;7.70;;
51732;SDS011;39139;53.144;6.244;2023-04-24T03:10:21;16.73;;;9.18;;
51732;SDS011;39139;53.144;6.244;2023-04-24T03:12:47;11.38;;;10.38;;
51732;SDS011;39139;53.144;6.244;2023-04-24T03:15:13;11.40;;;10.40;;
51732;SDS011;39139;53.144;6.244;2023-04-24T03:17:39;11.23;;;10.23;;
51732;SDS011;39139;53.144;6.244;2023-04-24T03:20:05;12.07;;;11.07;;
51732;SDS011;39139;53.144;6.244;2023-04-24T03:22:31;11.70;;;10.70;;
51732;SDS011;39139;53.144;6.244;2023-04-24T03:24:58;11.95;;;10.85;;
51732;SDS011;39139;53.144;6.244;2023-04-24T03:27:24;13.75;;;12.35;;
51732;SDS011;39139;53.144;6.244;2023-04-24T03:29:49;14.98;;;12.65;;
51732;SDS011;39139;53.144;6.244;2023-04-24T03:32:21;13.80;;;12.50;;
51732;SDS011;39139;53.144;6.244;2023-04-24T03:34:48;13.60;;;12.40;;
51732;SDS011;39139;53.144;6.244;2023-04-24T03:37:14;14.52;;;13.13;;
51732;SDS011;39139;53.144;6.244;2023-04-24T03:39:40;15.23;;;13.73;;
51732;SDS011;39139;53.144;6.244;2023-04-24T03:42:06;14.90;;;13.02;;
51732;SDS011;39139;53.144;6.244;2023-04-24T03:44:35;15.30;;;13.80;;
51732;SDS011;39139;53.144;6.244;2023-04-24T03:47:01;15.20;;;13.80;;
51732;SDS011;39139;53.144;6.244;2023-04-24T03:49:27;17.65;;;15.02;;
51732;SDS011;39139;53.144;6.244;2023-04-24T03:51:52;16.17;;;14.40;;
51732;SDS011;39139;53.144;6.244;2023-04-24T03:54:18;19.25;;;15.35;;
51732;SDS011;39139;53.144;6.244;2023-04-24T03:56:47;16.33;;;14.63;;
51732;SDS011;39139;53.144;6.244;2023-04-24T03:59:13;17.15;;;15.45;;
51732;SDS011;39139;53.144;6.244;2023-04-24T04:01:38;15.77;;;14.32;;
51732;SDS011;39139;53.144;6.244;2023-04-24T04:04:05;17.33;;;15.52;;
51732;SDS011;39139;53.144;6.244;2023-04-24T04:06:31;16.83;;;15.07;;
51732;SDS011;39139;53.144;6.244;2023-04-24T04:08:57;16.70;;;15.00;;
51732;SDS011;39139;53.144;6.244;2023-04-24T04:11:23;16.88;;;15.18;;
51732;SDS011;39139;53.144;6.244;2023-04-24T04:13:50;11.90;;;10.75;;
51732;SDS011;39139;53.144;6.244;2023-04-24T04:16:15;10.77;;;9.77;;
51732;SDS011;39139;53.144;6.244;2023-04-24T04:18:44;6.70;;;6.10;;
51732;SDS011;39139;53.144;6.244;2023-04-24T04:21:10;6.88;;;6.18;;
51732;SDS011;39139;53.144;6.244;2023-04-24T04:23:36;5.68;;;5.28;;
51732;SDS011;39139;53.144;6.244;2023-04-24T04:26:02;4.57;;;4.22;;
51732;SDS011;39139;53.144;6.244;2023-04-24T04:28:29;5.35;;;4.32;;
51732;SDS011;39139;53.144;6.244;2023-04-24T04:30:56;2.72;;;2.50;;
51732;SDS011;39139;53.144;6.244;2023-04-24T04:33:22;3.67;;;2.28;;
51732;SDS011;39139;53.144;6.244;2023-04-24T04:35:49;2.80;;;2.40;;
51732;SDS011;39139;53.144;6.244;2023-04-24T04:38:17;3.55;;;2.05;;
51732;SDS011;39139;53.144;6.244;2023-04-24T04:40:43;2.78;;;1.63;;
51732;SDS011;39139;53.144;6.244;2023-04-24T04:43:12;1.55;;;1.30;;
51732;SDS011;39139;53.144;6.244;2023-04-24T04:45:39;1.02;;;1.02;;
51732;SDS011;39139;53.144;6.244;2023-04-24T04:48:07;1.70;;;1.15;;
51732;SDS011;39139;53.144;6.244;2023-04-24T04:50:38;1.48;;;1.10;;
51732;SDS011;39139;53.144;6.244;2023-04-24T04:53:04;1.67;;;1.50;;
51732;SDS011;39139;53.144;6.244;2023-04-24T04:55:30;2.05;;;1.25;;
51732;SDS011;39139;53.144;6.244;2023-04-24T04:57:56;1.40;;;1.30;;
51732;SDS011;39139;53.144;6.244;2023-04-24T05:00:22;1.63;;;1.52;;
51732;SDS011;39139;53.144;6.244;2023-04-24T05:02:50;3.13;;;1.98;;
51732;SDS011;39139;53.144;6.244;2023-04-24T05:05:16;1.75;;;1.65;;
51732;SDS011;39139;53.144;6.244;2023-04-24T05:07:43;2.60;;;2.05;;
51732;SDS011;39139;53.144;6.244;2023-04-24T05:10:09;3.45;;;2.22;;
51732;SDS011;39139;53.144;6.244;2023-04-24T05:12:35;2.58;;;2.00;;
51732;SDS011;39139;53.144;6.244;2023-04-24T05:15:01;2.53;;;2.33;;
51732;SDS011;39139;53.144;6.244;2023-04-24T05:17:27;3.47;;;2.65;;
51732;SDS011;39139;53.144;6.244;2023-04-24T05:19:53;3.70;;;2.30;;
51732;SDS011;39139;53.144;6.244;2023-04-24T05:22:19;2.50;;;2.30;;
51732;SDS011;39139;53.144;6.244;2023-04-24T05:24:46;3.75;;;2.20;;
51732;SDS011;39139;53.144;6.244;2023-04-24T05:27:15;2.17;;;2.08;;
51732;SDS011;39139;53.144;6.244;2023-04-24T05:29:43;1.92;;;1.83;;
51732;SDS011;39139;53.144;6.244;2023-04-24T05:32:09;3.42;;;2.17;;
51732;SDS011;39139;53.144;6.244;2023-04-24T05:34:35;1.92;;;1.83;;
51732;SDS011;39139;53.144;6.244;2023-04-24T05:37:01;2.53;;;2.20;;
51732;SDS011;39139;53.144;6.244;2023-04-24T05:39:27;2.97;;;2.35;;
51732;SDS011;39139;53.144;6.244;2023-04-24T05:41:53;3.10;;;2.90;;
51732;SDS011;39139;53.144;6.244;2023-04-24T05:44:20;4.00;;;3.65;;
51732;SDS011;39139;53.144;6.244;2023-04-24T05:46:45;4.65;;;3.65;;
51732;SDS011;39139;53.144;6.244;2023-04-24T05:49:11;4.10;;;3.75;;
51732;SDS011;39139;53.144;6.244;2023-04-24T05:51:37;6.32;;;4.47;;
51732;SDS011;39139;53.144;6.244;2023-04-24T05:54:04;4.43;;;4.13;;
51732;SDS011;39139;53.144;6.244;2023-04-24T05:56:30;4.85;;;4.45;;
51732;SDS011;39139;53.144;6.244;2023-04-24T05:58:56;5.25;;;4.50;;
51732;SDS011;39139;53.144;6.244;2023-04-24T06:01:21;5.60;;;4.47;;
51732;SDS011;39139;53.144;6.244;2023-04-24T06:03:47;5.30;;;4.10;;
51732;SDS011;39139;53.144;6.244;2023-04-24T06:06:13;5.35;;;4.75;;
51732;SDS011;39139;53.144;6.244;2023-04-24T06:08:38;5.03;;;4.47;;
51732;SDS011;39139;53.144;6.244;2023-04-24T06:11:04;5.88;;;5.30;;
51732;SDS011;39139;53.144;6.244;2023-04-24T06:13:31;4.68;;;4.22;;
51732;SDS011;39139;53.144;6.244;2023-04-24T06:15:56;5.65;;;4.95;;
51732;SDS011;39139;53.144;6.244;2023-04-24T06:18:22;4.57;;;4.10;;
51732;SDS011;39139;53.144;6.244;2023-04-24T06:20:48;4.82;;;4.35;;
51732;SDS011;39139;53.144;6.244;2023-04-24T06:23:14;5.70;;;3.63;;
51732;SDS011;39139;53.144;6.244;2023-04-24T06:25:40;4.30;;;3.90;;
51732;SDS011;39139;53.144;6.244;2023-04-24T06:28:05;6.10;;;3.25;;
51732;SDS011;39139;53.144;6.244;2023-04-24T06:30:31;2.97;;;2.78;;
51732;SDS011;39139;53.144;6.244;2023-04-24T06:32:57;3.22;;;1.90;;
51732;SDS011;39139;53.144;6.244;2023-04-24T06:35:22;2.35;;;1.77;;
51732;SDS011;39139;53.144;6.244;2023-04-24T06:37:48;3.30;;;1.67;;
51732;SDS011;39139;53.144;6.244;2023-04-24T06:40:14;2.10;;;1.33;;
51732;SDS011;39139;53.144;6.244;2023-04-24T06:42:40;4.20;;;1.67;;
51732;SDS011;39139;53.144;6.244;2023-04-24T06:45:05;3.10;;;1.83;;
51732;SDS011;39139;53.144;6.244;2023-04-24T06:47:31;2.92;;;1.35;;
51732;SDS011;39139;53.144;6.244;2023-04-24T06:49:57;1.88;;;1.10;;
51732;SDS011;39139;53.144;6.244;2023-04-24T06:52:23;2.28;;;1.30;;
51732;SDS011;39139;53.144;6.244;2023-04-24T06:54:49;3.22;;;1.02;;
51732;SDS011;39139;53.144;6.244;2023-04-24T06:57:15;3.70;;;1.02;;
51732;SDS011;39139;53.144;6.244;2023-04-24T06:59:43;3.42;;;1.75;;
51732;SDS011;39139;53.144;6.244;2023-04-24T07:02:09;5.45;;;1.90;;
51732;SDS011;39139;53.144;6.244;2023-04-24T07:04:34;3.75;;;1.50;;
51732;SDS011;39139;53.144;6.244;2023-04-24T07:07:00;2.83;;;1.73;;
51732;SDS011;39139;53.144;6.244;2023-04-24T07:09:26;4.95;;;1.77;;
51732;SDS011;39139;53.144;6.244;2023-04-24T07:11:52;2.85;;;1.45;;
51732;SDS011;39139;53.144;6.244;2023-04-24T07:14:18;5.43;;;2.03;;
51732;SDS011;39139;53.144;6.244;2023-04-24T07:16:44;5.35;;;1.90;;
51732;SDS011;39139;53.144;6.244;2023-04-24T07:19:10;1.75;;;1.42;;
51732;SDS011;39139;53.144;6.244;2023-04-24T07:21:36;3.33;;;2.30;;
51732;SDS011;39139;53.144;6.244;2023-04-24T07:24:02;5.47;;;2.22;;
51732;SDS011;39139;53.144;6.244;2023-04-24T07:26:30;4.20;;;3.38;;
51732;SDS011;39139;53.144;6.244;2023-04-24T07:28:56;8.73;;;3.75;;
51732;SDS011;39139;53.144;6.244;2023-04-24T07:31:22;11.35;;;5.82;;
51732;SDS011;39139;53.144;6.244;2023-04-24T07:33:47;8.93;;;6.07;;
51732;SDS011;39139;53.144;6.244;2023-04-24T07:36:13;14.35;;;7.45;;
51732;SDS011;39139;53.144;6.244;2023-04-24T07:38:44;11.23;;;7.88;;
51732;SDS011;39139;53.144;6.244;2023-04-24T07:41:10;18.95;;;11.70;;
51732;SDS011;39139;53.144;6.244;2023-04-24T07:43:37;18.65;;;12.73;;
51732;SDS011;39139;53.144;6.244;2023-04-24T07:46:02;16.30;;;11.10;;
51732;SDS011;39139;53.144;6.244;2023-04-24T07:48:28;18.10;;;11.40;;
51732;SDS011;39139;53.144;6.244;2023-04-24T07:50:54;20.58;;;12.43;;
51732;SDS011;39139;53.144;6.244;2023-04-24T07:53:19;21.52;;;13.32;;
51732;SDS011;39139;53.144;6.244;2023-04-24T07:55:45;16.45;;;12.23;;
51732;SDS011;39139;53.144;6.244;2023-04-24T07:58:11;21.88;;;10.50;;
51732;SDS011;39139;53.144;6.244;2023-04-24T08:00:36;15.70;;;9.48;;
51732;SDS011;39139;53.144;6.244;2023-04-24T08:03:02;20.67;;;10.73;;
51732;SDS011;39139;53.144;6.244;2023-04-24T08:05:28;21.35;;;13.43;;
51732;SDS011;39139;53.144;6.244;2023-04-24T08:07:54;16.63;;;11.45;;
51732;SDS011;39139;53.144;6.244;2023-04-24T08:10:23;19.80;;;12.70;;
51732;SDS011;39139;53.144;6.244;2023-04-24T08:12:49;17.80;;;12.07;;
51732;SDS011;39139;53.144;6.244;2023-04-24T08:15:14;16.90;;;12.85;;
51732;SDS011;39139;53.144;6.244;2023-04-24T08:17:40;23.35;;;13.77;;
51732;SDS011;39139;53.144;6.244;2023-04-24T08:20:06;25.77;;;14.68;;
51732;SDS011;39139;53.144;6.244;2023-04-24T08:22:38;22.80;;;14.50;;
51732;SDS011;39139;53.144;6.244;2023-04-24T08:25:05;20.67;;;13.07;;
51732;SDS011;39139;53.144;6.244;2023-04-24T08:27:31;22.35;;;12.82;;
51732;SDS011;39139;53.144;6.244;2023-04-24T08:29:56;21.25;;;13.02;;
51732;SDS011;39139;53.144;6.244;2023-04-24T08:32:23;23.90;;;13.55;;
51732;SDS011;39139;53.144;6.244;2023-04-24T08:34:49;17.42;;;13.55;;
51732;SDS011;39139;53.144;6.244;2023-04-24T08:37:17;23.63;;;13.60;;
51732;SDS011;39139;53.144;6.244;2023-04-24T08:39:43;17.55;;;12.77;;
51732;SDS011;39139;53.144;6.244;2023-04-24T08:42:08;18.25;;;13.20;;
51732;SDS011;39139;53.144;6.244;2023-04-24T08:44:36;16.35;;;12.35;;
51732;SDS011;39139;53.144;6.244;2023-04-24T08:47:02;17.52;;;11.63;;
51732;SDS011;39139;53.144;6.244;2023-04-24T08:49:28;14.05;;;11.18;;
51732;SDS011;39139;53.144;6.244;2023-04-24T08:51:54;14.93;;;9.80;;
51732;SDS011;39139;53.144;6.244;2023-04-24T08:54:20;16.48;;;9.82;;
51732;SDS011;39139;53.144;6.244;2023-04-24T08:56:47;11.20;;;8.07;;
51732;SDS011;39139;53.144;6.244;2023-04-24T08:59:14;13.45;;;7.90;;
51732;SDS011;39139;53.144;6.244;2023-04-24T09:01:40;12.25;;;7.30;;
51732;SDS011;39139;53.144;6.244;2023-04-24T09:04:08;9.13;;;6.32;;
51732;SDS011;39139;53.144;6.244;2023-04-24T09:06:38;11.30;;;6.82;;
51732;SDS011;39139;53.144;6.244;2023-04-24T09:09:04;13.80;;;7.15;;
51732;SDS011;39139;53.144;6.244;2023-04-24T09:11:31;7.80;;;6.82;;
51732;SDS011;39139;53.144;6.244;2023-04-24T09:14:00;13.48;;;7.03;;
51732;SDS011;39139;53.144;6.244;2023-04-24T09:16:26;7.78;;;5.97;;
51732;SDS011;39139;53.144;6.244;2023-04-24T09:18:52;11.23;;;5.97;;
51732;SDS011;39139;53.144;6.244;2023-04-24T09:21:19;12.75;;;6.03;;
51732;SDS011;39139;53.144;6.244;2023-04-24T09:23:46;15.07;;;6.15;;
51732;SDS011;39139;53.144;6.244;2023-04-24T09:26:24;10.93;;;6.45;;
51732;SDS011;39139;53.144;6.244;2023-04-24T09:28:50;11.60;;;6.57;;
51732;SDS011;39139;53.144;6.244;2023-04-24T09:31:18;8.30;;;4.95;;
51732;SDS011;39139;53.144;6.244;2023-04-24T09:34:04;14.65;;;5.03;;
51732;SDS011;39139;53.144;6.244;2023-04-24T09:36:42;12.13;;;5.07;;
51732;SDS011;39139;53.144;6.244;2023-04-24T09:39:09;13.57;;;4.32;;
51732;SDS011;39139;53.144;6.244;2023-04-24T09:41:58;11.32;;;4.50;;
51732;SDS011;39139;53.144;6.244;2023-04-24T09:44:24;7.88;;;3.47;;
51732;SDS011;39139;53.144;6.244;2023-04-24T09:46:58;7.47;;;3.33;;
51732;SDS011;39139;53.144;6.244;2023-04-24T09:49:26;8.77;;;3.97;;
51732;SDS011;39139;53.144;6.244;2023-04-24T09:51:52;10.88;;;2.78;;
51732;SDS011;39139;53.144;6.244;2023-04-24T09:54:27;11.55;;;3.83;;
51732;SDS011;39139;53.144;6.244;2023-04-24T09:56:52;8.75;;;3.50;;
51732;SDS011;39139;53.144;6.244;2023-04-24T09:59:19;9.52;;;3.42;;
51732;SDS011;39139;53.144;6.244;2023-04-24T10:01:45;7.85;;;3.03;;
51732;SDS011;39139;53.144;6.244;2023-04-24T10:04:17;14.38;;;3.50;;
51732;SDS011;39139;53.144;6.244;2023-04-24T10:06:44;11.57;;;3.10;;
51732;SDS011;39139;53.144;6.244;2023-04-24T10:09:10;8.60;;;3.05;;
51732;SDS011;39139;53.144;6.244;2023-04-24T10:11:37;8.35;;;3.80;;
51732;SDS011;39139;53.144;6.244;2023-04-24T10:14:07;10.05;;;2.75;;
51732;SDS011;39139;53.144;6.244;2023-04-24T10:16:35;6.03;;;2.30;;
51732;SDS011;39139;53.144;6.244;2023-04-24T10:19:02;9.32;;;2.00;;
51732;SDS011;39139;53.144;6.244;2023-04-24T10:21:28;6.72;;;1.92;;
51732;SDS011;39139;53.144;6.244;2023-04-24T10:23:55;13.30;;;2.13;;
51732;SDS011;39139;53.144;6.244;2023-04-24T10:26:21;8.50;;;2.15;;
51732;SDS011;39139;53.144;6.244;2023-04-24T10:28:48;9.32;;;1.92;;
51732;SDS011;39139;53.144;6.244;2023-04-24T10:31:14;5.20;;;1.70;;
51732;SDS011;39139;53.144;6.244;2023-04-24T10:33:41;11.13;;;2.42;;
51732;SDS011;39139;53.144;6.244;2023-04-24T10:36:09;5.72;;;2.42;;
51732;SDS011;39139;53.144;6.244;2023-04-24T10:38:35;6.43;;;1.90;;
51732;SDS011;39139;53.144;6.244;2023-04-24T10:41:06;7.53;;;1.88;;
51732;SDS011;39139;53.144;6.244;2023-04-24T10:43:34;6.07;;;2.30;;
51732;SDS011;39139;53.144;6.244;2023-04-24T10:46:04;7.05;;;1.92;;
51732;SDS011;39139;53.144;6.244;2023-04-24T10:48:30;10.77;;;1.70;;
51732;SDS011;39139;53.144;6.244;2023-04-24T10:50:57;8.63;;;2.03;;
51732;SDS011;39139;53.144;6.244;2023-04-24T10:53:24;3.53;;;1.17;;
51732;SDS011;39139;53.144;6.244;2023-04-24T10:56:06;8.27;;;1.55;;
51732;SDS011;39139;53.144;6.244;2023-04-24T10:58:38;6.28;;;1.15;;
51732;SDS011;39139;53.144;6.244;2023-04-24T11:01:48;8.60;;;1.88;;
51732;SDS011;39139;53.144;6.244;2023-04-24T11:04:21;9.48;;;1.50;;
51732;SDS011;39139;53.144;6.244;2023-04-24T11:06:55;3.90;;;1.00;;
51732;SDS011;39139;53.144;6.244;2023-04-24T11:09:21;5.88;;;1.27;;
51732;SDS011;39139;53.144;6.244;2023-04-24T11:11:47;4.72;;;1.50;;
51732;SDS011;39139;53.144;6.244;2023-04-24T11:14:16;6.15;;;1.42;;
51732;SDS011;39139;53.144;6.244;2023-04-24T11:16:45;6.10;;;1.40;;
51732;SDS011;39139;53.144;6.244;2023-04-24T11:19:18;9.93;;;1.75;;
51732;SDS011;39139;53.144;6.244;2023-04-24T11:21:58;6.80;;;1.27;;
51732;SDS011;39139;53.144;6.244;2023-04-24T11:35:01;6.20;;;1.00;;
51732;SDS011;39139;53.144;6.244;2023-04-24T11:37:29;4.60;;;1.08;;
51732;SDS011;39139;53.144;6.244;2023-04-24T11:40:06;4.80;;;1.17;;
51732;SDS011;39139;53.144;6.244;2023-04-24T11:42:40;5.43;;;1.08;;
51732;SDS011;39139;53.144;6.244;2023-04-24T11:45:17;12.88;;;1.52;;
51732;SDS011;39139;53.144;6.244;2023-04-24T11:47:47;5.55;;;1.42;;
51732;SDS011;39139;53.144;6.244;2023-04-24T11:50:16;11.82;;;1.67;;
51732;SDS011;39139;53.144;6.244;2023-04-24T11:52:44;3.25;;;1.05;;
51732;SDS011;39139;53.144;6.244;2023-04-24T11:57:40;6.43;;;1.60;;
51732;SDS011;39139;53.144;6.244;2023-04-24T12:02:40;6.97;;;1.02;;
51732;SDS011;39139;53.144;6.244;2023-04-24T12:05:06;6.20;;;1.50;;
51732;SDS011;39139;53.144;6.244;2023-04-24T12:07:36;4.53;;;1.35;;
51732;SDS011;39139;53.144;6.244;2023-04-24T12:10:07;6.22;;;1.55;;
51732;SDS011;39139;53.144;6.244;2023-04-24T12:12:34;1.17;;;0.65;;
51732;SDS011;39139;53.144;6.244;2023-04-24T12:15:00;3.50;;;0.77;;
51732;SDS011;39139;53.144;6.244;2023-04-24T12:17:27;1.90;;;0.50;;
51732;SDS011;39139;53.144;6.244;2023-04-24T12:20:02;2.20;;;0.63;;
51732;SDS011;39139;53.144;6.244;2023-04-24T12:22:48;5.15;;;0.50;;
51732;SDS011;39139;53.144;6.244;2023-04-24T12:25:19;3.42;;;1.30;;
51732;SDS011;39139;53.144;6.244;2023-04-24T12:28:08;4.65;;;0.93;;
51732;SDS011;39139;53.144;6.244;2023-04-24T12:30:45;6.90;;;0.93;;
51732;SDS011;39139;53.144;6.244;2023-04-24T12:33:17;6.20;;;1.58;;
51732;SDS011;39139;53.144;6.244;2023-04-24T12:35:44;8.00;;;1.42;;
51732;SDS011;39139;53.144;6.244;2023-04-24T12:38:11;8.80;;;0.90;;
51732;SDS011;39139;53.144;6.244;2023-04-24T12:40:38;7.75;;;1.08;;
51732;SDS011;39139;53.144;6.244;2023-04-24T12:43:15;2.60;;;0.70;;
51732;SDS011;39139;53.144;6.244;2023-04-24T12:45:42;3.10;;;0.50;;
51732;SDS011;39139;53.144;6.244;2023-04-24T12:48:09;7.35;;;0.68;;
51732;SDS011;39139;53.144;6.244;2023-04-24T12:50:34;3.97;;;0.50;;
51732;SDS011;39139;53.144;6.244;2023-04-24T12:53:00;1.73;;;0.22;;
51732;SDS011;39139;53.144;6.244;2023-04-24T12:55:25;3.28;;;0.30;;
51732;SDS011;39139;53.144;6.244;2023-04-24T12:57:51;2.65;;;0.22;;
51732;SDS011;39139;53.144;6.244;2023-04-24T13:00:18;4.05;;;0.60;;
51732;SDS011;39139;53.144;6.244;2023-04-24T13:02:44;1.80;;;0.30;;
51732;SDS011;39139;53.144;6.244;2023-04-24T13:05:09;2.33;;;0.25;;
51732;SDS011;39139;53.144;6.244;2023-04-24T13:07:36;4.38;;;0.57;;
51732;SDS011;39139;53.144;6.244;2023-04-24T13:10:02;4.60;;;0.65;;
51732;SDS011;39139;53.144;6.244;2023-04-24T13:12:27;3.38;;;0.40;;
51732;SDS011;39139;53.144;6.244;2023-04-24T13:14:53;6.50;;;0.80;;
51732;SDS011;39139;53.144;6.244;2023-04-24T13:17:19;8.43;;;0.80;;
51732;SDS011;39139;53.144;6.244;2023-04-24T13:19:45;4.68;;;0.52;;
51732;SDS011;39139;53.144;6.244;2023-04-24T13:22:11;5.40;;;0.90;;
51732;SDS011;39139;53.144;6.244;2023-04-24T13:24:37;4.13;;;0.88;;
51732;SDS011;39139;53.144;6.244;2023-04-24T13:27:05;3.92;;;0.70;;
51732;SDS011;39139;53.144;6.244;2023-04-24T13:29:31;2.80;;;0.50;;
51732;SDS011;39139;53.144;6.244;2023-04-24T13:31:57;4.43;;;0.52;;
51732;SDS011;39139;53.144;6.244;2023-04-24T13:34:23;2.25;;;0.40;;
51732;SDS011;39139;53.144;6.244;2023-04-24T13:36:50;7.13;;;0.75;;
51732;SDS011;39139;53.144;6.244;2023-04-24T13:39:16;3.78;;;0.65;;
51732;SDS011;39139;53.144;6.244;2023-04-24T13:41:42;5.53;;;0.75;;
51732;SDS011;39139;53.144;6.244;2023-04-24T13:44:08;5.70;;;1.00;;
51732;SDS011;39139;53.144;6.244;2023-04-24T13:46:34;3.63;;;1.02;;
51732;SDS011;39139;53.144;6.244;2023-04-24T13:49:01;8.00;;;1.75;;
51732;SDS011;39139;53.144;6.244;2023-04-24T13:51:27;10.02;;;1.45;;
51732;SDS011;39139;53.144;6.244;2023-04-24T13:53:53;9.70;;;2.10;;
51732;SDS011;39139;53.144;6.244;2023-04-24T13:56:19;11.73;;;1.73;;
51732;SDS011;39139;53.144;6.244;2023-04-24T13:58:46;12.95;;;1.88;;
51732;SDS011;39139;53.144;6.244;2023-04-24T14:01:12;8.52;;;1.73;;
51732;SDS011;39139;53.144;6.244;2023-04-24T14:03:38;10.98;;;2.05;;
51732;SDS011;39139;53.144;6.244;2023-04-24T14:06:04;10.27;;;1.90;;
51732;SDS011;39139;53.144;6.244;2023-04-24T14:08:31;8.75;;;1.92;;
51732;SDS011;39139;53.144;6.244;2023-04-24T14:10:57;10.95;;;2.25;;
51732;SDS011;39139;53.144;6.244;2023-04-24T14:13:22;5.30;;;1.63;;
51732;SDS011;39139;53.144;6.244;2023-04-24T14:15:48;6.50;;;1.48;;
51732;SDS011;39139;53.144;6.244;2023-04-24T14:18:14;9.10;;;2.35;;
51732;SDS011;39139;53.144;6.244;2023-04-24T14:20:40;6.65;;;2.13;;
51732;SDS011;39139;53.144;6.244;2023-04-24T14:23:06;11.35;;;2.40;;
51732;SDS011;39139;53.144;6.244;2023-04-24T14:25:31;8.10;;;2.40;;
51732;SDS011;39139;53.144;6.244;2023-04-24T14:27:57;7.78;;;2.40;;
51732;SDS011;39139;53.144;6.244;2023-04-24T14:30:22;14.07;;;2.28;;
51732;SDS011;39139;53.144;6.244;2023-04-24T14:32:48;9.35;;;2.55;;
51732;SDS011;39139;53.144;6.244;2023-04-24T14:35:14;11.75;;;2.60;;
51732;SDS011;39139;53.144;6.244;2023-04-24T14:37:40;14.15;;;2.20;;
51732;SDS011;39139;53.144;6.244;2023-04-24T14:40:06;6.30;;;1.88;;
51732;SDS011;39139;53.144;6.244;2023-04-24T14:42:33;13.63;;;3.50;;
51732;SDS011;39139;53.144;6.244;2023-04-24T14:44:59;12.20;;;2.75;;
51732;SDS011;39139;53.144;6.244;2023-04-24T14:47:24;11.75;;;3.53;;
51732;SDS011;39139;53.144;6.244;2023-04-24T14:49:50;15.63;;;3.53;;
51732;SDS011;39139;53.144;6.244;2023-04-24T14:52:16;13.38;;;2.90;;
51732;SDS011;39139;53.144;6.244;2023-04-24T14:54:42;9.68;;;3.22;;
51732;SDS011;39139;53.144;6.244;2023-04-24T14:57:08;13.18;;;4.15;;